Time;durP1;ratioP1;P1;durP2;ratioP2;P2;SDS_P1;SDS_P2;PMS_P1;PMS_P2;Temp;Humidity;BMP_temperature;BMP_pressure;BME280_temperature;BME280_humidity;BME280_pressure;Samples;Min_cycle;Max_cycle;Signal;HPM_P1;HPM_P2
2022/05/31 00:00:08;;;;;;;4.53;0.85;;;;;;;27.84;27.82;96194.00;5115433;28;20031;-32
2022/05/31 00:02:33;;;;;;;1.05;0.73;;;;;;;27.83;27.80;96192.34;5110458;28;20127;-31
2022/05/31 00:04:59;;;;;;;1.35;0.80;;;;;;;27.84;27.97;96204.53;5109572;28;20437;-30
2022/05/31 00:07:24;;;;;;;1.10;0.65;;;;;;;27.83;27.97;96202.88;5108262;28;20035;-32
2022/05/31 00:09:49;;;;;;;1.70;0.90;;;;;;;27.82;27.88;96195.94;5103880;28;20865;-33
2022/05/31 00:12:15;;;;;;;3.00;0.80;;;;;;;27.82;27.87;96195.94;5102419;28;20042;-30
2022/05/31 00:14:40;;;;;;;0.90;0.60;;;;;;;27.82;27.77;96190.66;5103815;27;21095;-30
2022/05/31 00:17:06;;;;;;;1.95;0.88;;;;;;;27.83;27.80;96191.47;5099585;27;20700;-30
2022/05/31 00:19:31;;;;;;;0.77;0.73;;;;;;;27.83;27.91;96186.22;5102648;28;20031;-30
2022/05/31 00:21:59;;;;;;;1.75;0.80;;;;;;;27.82;28.00;96187.19;5105335;27;20589;-30
2022/05/31 00:24:25;;;;;;;2.20;0.80;;;;;;;27.83;27.70;96191.47;5104444;28;20055;-31
2022/05/31 00:26:50;;;;;;;2.45;1.02;;;;;;;27.82;27.82;96195.94;5117440;28;20026;-30
2022/05/31 00:29:15;;;;;;;1.00;0.90;;;;;;;27.82;27.81;96185.41;5110255;27;20026;-34
2022/05/31 00:31:44;;;;;;;1.40;0.70;;;;;;;27.79;27.72;96177.72;5106523;28;20412;-34
2022/05/31 00:34:10;;;;;;;1.80;0.60;;;;;;;27.82;27.79;96184.53;5105843;27;20142;-34
2022/05/31 00:36:36;;;;;;;1.63;0.70;;;;;;;27.82;27.78;96182.75;5096273;28;20023;-31
2022/05/31 00:39:01;;;;;;;0.85;0.80;;;;;;;27.81;27.82;96183.72;5085179;28;20114;-33
2022/05/31 00:41:26;;;;;;;1.10;0.88;;;;;;;27.81;28.00;96181.09;5106454;28;21046;-31
2022/05/31 00:44:26;;;;;;;0.93;0.63;;;;;;;27.81;27.85;96180.22;5101558;28;20031;-32
2022/05/31 00:47:24;;;;;;;0.75;0.75;;;;;;;27.81;27.78;96191.63;5100078;27;20061;-31
2022/05/31 00:50:14;;;;;;;1.52;0.80;;;;;;;27.80;27.88;96187.28;5077955;28;20103;-33
2022/05/31 00:52:47;;;;;;;1.48;0.88;;;;;;;27.80;27.93;96186.47;5104223;28;21781;-33
2022/05/31 00:55:21;;;;;;;1.10;0.80;;;;;;;27.79;27.81;96185.59;5100983;28;20649;-32
2022/05/31 00:58:11;;;;;;;1.13;0.60;;;;;;;27.78;27.79;96178.66;5104635;28;20050;-32
2022/05/31 01:00:36;;;;;;;0.38;0.38;;;;;;;27.79;27.80;96182.97;5085457;28;20019;-30
2022/05/31 01:03:02;;;;;;;1.27;0.82;;;;;;;27.78;27.62;96183.94;5102441;27;20029;-39
2022/05/31 01:05:28;;;;;;;2.50;0.85;;;;;;;27.78;27.89;96184.78;5069656;28;20054;-30
2022/05/31 01:07:53;;;;;;;2.42;0.80;;;;;;;27.80;28.11;96191.72;5104609;28;20994;-35
2022/05/31 01:10:18;;;;;;;4.53;0.90;;;;;;;27.79;27.80;96185.59;5100773;28;20043;-35
2022/05/31 01:12:45;;;;;;;1.58;0.88;;;;;;;27.78;27.75;96183.94;5102414;28;20840;-30
2022/05/31 01:15:11;;;;;;;0.88;0.60;;;;;;;27.78;27.79;96186.56;5103062;28;20027;-30
2022/05/31 01:17:37;;;;;;;2.47;0.70;;;;;;;27.77;27.80;96188.34;5101859;27;20065;-32
2022/05/31 01:20:10;;;;;;;1.08;0.60;;;;;;;27.77;28.07;96188.34;5064081;27;20027;-32
2022/05/31 01:22:50;;;;;;;1.27;0.80;;;;;;;27.78;27.80;96183.94;5102594;28;20065;-30
2022/05/31 01:25:36;;;;;;;1.45;0.90;;;;;;;27.77;28.01;96184.88;5102579;28;20026;-31
2022/05/31 01:28:05;;;;;;;2.78;0.73;;;;;;;27.77;28.00;96182.25;5103047;28;20426;-29
2022/05/31 01:30:31;;;;;;;1.05;0.70;;;;;;;27.76;27.90;96177.91;5102841;28;20023;-34
2022/05/31 01:33:16;;;;;;;1.25;0.70;;;;;;;27.76;27.76;96180.56;5083973;28;20146;-38
2022/05/31 01:35:42;;;;;;;1.45;0.80;;;;;;;27.76;27.94;96186.66;5083652;28;20066;-34
2022/05/31 01:38:16;;;;;;;1.08;0.70;;;;;;;27.75;27.92;96176.25;5102774;28;20027;-34
2022/05/31 01:41:06;;;;;;;1.48;0.80;;;;;;;27.75;27.95;96174.47;5066406;28;20034;-37
2022/05/31 01:43:32;;;;;;;1.10;0.55;;;;;;;27.75;27.82;96176.25;5083197;28;20110;-32
2022/05/31 01:46:09;;;;;;;2.83;0.93;;;;;;;27.75;27.79;96176.25;5101750;28;20031;-31
2022/05/31 01:48:35;;;;;;;0.95;0.57;;;;;;;27.75;28.19;96173.59;5099873;28;20080;-30
2022/05/31 01:51:00;;;;;;;0.90;0.60;;;;;;;27.74;27.85;96177.19;5103656;28;20043;-31
2022/05/31 01:53:26;;;;;;;1.00;0.80;;;;;;;27.73;27.78;96173.72;5080483;28;20034;-30
2022/05/31 01:55:52;;;;;;;0.75;0.50;;;;;;;27.74;27.79;96177.19;5104624;28;20027;-30
2022/05/31 01:58:22;;;;;;;0.82;0.70;;;;;;;27.73;27.99;96168.44;5103711;28;20026;-33
2022/05/31 02:00:47;;;;;;;0.73;0.52;;;;;;;27.73;27.54;96173.72;5106325;28;20024;-34
2022/05/31 02:03:13;;;;;;;1.05;0.70;;;;;;;27.73;27.89;96176.34;5102706;28;20042;-31
2022/05/31 02:05:49;;;;;;;1.48;0.70;;;;;;;27.73;27.76;96172.88;5051555;28;20153;-32
2022/05/31 02:08:16;;;;;;;2.15;0.60;;;;;;;27.74;27.84;96177.19;5100577;28;20031;-34
2022/05/31 02:10:42;;;;;;;1.02;0.70;;;;;;;27.74;27.94;96182.47;5105515;28;20823;-31
2022/05/31 02:13:07;;;;;;;1.67;0.80;;;;;;;27.73;27.97;96175.53;5099174;28;20031;-34
2022/05/31 02:15:33;;;;;;;1.50;0.60;;;;;;;27.73;27.87;96172.88;5101583;28;20573;-32
2022/05/31 02:17:58;;;;;;;0.88;0.57;;;;;;;27.72;27.83;96173.84;5102070;28;20676;-37
2022/05/31 02:20:24;;;;;;;1.30;0.68;;;;;;;27.72;28.05;96173.84;5102154;28;20035;-31
2022/05/31 02:22:49;;;;;;;1.05;0.65;;;;;;;27.73;27.87;96180.78;5106848;27;20073;-33
2022/05/31 02:25:15;;;;;;;1.60;0.60;;;;;;;27.73;27.83;96175.53;5103961;28;20656;-30
2022/05/31 02:27:40;;;;;;;1.27;0.70;;;;;;;27.72;27.83;96184.38;5111127;28;20096;-38
2022/05/31 02:30:06;;;;;;;1.58;0.80;;;;;;;27.72;27.62;96182.56;5105166;28;20031;-33
2022/05/31 02:32:32;;;;;;;1.85;0.70;;;;;;;27.71;27.78;96185.31;5102918;28;20428;-31
2022/05/31 02:34:57;;;;;;;1.63;0.80;;;;;;;27.70;27.81;96176.59;5103261;28;20034;-30
2022/05/31 02:37:23;;;;;;;1.20;0.77;;;;;;;27.72;27.75;96179.13;5103061;28;20269;-33
2022/05/31 02:39:48;;;;;;;0.90;0.63;;;;;;;27.70;27.77;96176.59;5102773;28;20031;-36
2022/05/31 02:42:14;;;;;;;1.08;0.70;;;;;;;27.72;27.97;96181.75;5102567;28;20039;-30
2022/05/31 02:44:39;;;;;;;1.27;0.77;;;;;;;27.71;27.98;96186.16;5107937;27;20079;-32
2022/05/31 02:47:05;;;;;;;0.95;0.75;;;;;;;27.72;27.89;96184.38;5105130;28;21921;-39
2022/05/31 02:49:31;;;;;;;2.15;0.80;;;;;;;27.71;27.84;96183.53;5108274;28;20035;-30
2022/05/31 02:51:57;;;;;;;1.00;0.52;;;;;;;27.71;27.84;96193.19;5105038;28;20041;-31
2022/05/31 02:54:23;;;;;;;0.60;0.50;;;;;;;27.70;27.87;96181.84;5105205;28;20055;-32
2022/05/31 02:56:48;;;;;;;1.45;0.60;;;;;;;27.71;27.77;96190.56;5105941;28;20026;-30
2022/05/31 02:59:14;;;;;;;0.85;0.68;;;;;;;27.71;27.95;96190.56;5108819;28;20047;-31
2022/05/31 03:01:40;;;;;;;0.60;0.60;;;;;;;27.70;28.06;96191.53;5082409;28;20027;-31
2022/05/31 03:04:05;;;;;;;0.77;0.70;;;;;;;27.70;27.80;96189.75;5103490;28;20027;-33
2022/05/31 03:06:31;;;;;;;0.63;0.63;;;;;;;27.69;27.72;96184.59;5112001;28;20123;-30
2022/05/31 03:08:58;;;;;;;1.48;0.80;;;;;;;27.69;27.87;96189.84;5098465;28;20026;-30
2022/05/31 03:11:25;;;;;;;1.70;0.68;;;;;;;27.69;28.07;96184.59;5107285;28;20035;-33
2022/05/31 03:13:53;;;;;;;0.88;0.60;;;;;;;27.68;28.10;96188.16;5115037;27;20034;-30
2022/05/31 03:16:18;;;;;;;0.77;0.65;;;;;;;27.68;28.09;96182.91;5097057;28;20023;-32
2022/05/31 03:18:48;;;;;;;0.98;0.73;;;;;;;27.69;27.83;96181.94;5090847;28;20035;-35
2022/05/31 03:21:16;;;;;;;1.70;0.70;;;;;;;27.68;27.91;96177.66;5100531;28;20730;-32
2022/05/31 03:23:52;;;;;;;0.40;0.40;;;;;;;27.68;28.06;96175.84;5098620;28;20441;-32
2022/05/31 03:26:17;;;;;;;1.20;0.80;;;;;;;27.65;27.78;96169.00;5115455;28;20061;-29
2022/05/31 03:28:42;;;;;;;1.70;0.95;;;;;;;27.68;27.89;96172.38;5117370;28;20102;-31
2022/05/31 03:31:08;;;;;;;1.45;0.90;;;;;;;27.67;27.86;96175.94;5113495;27;20019;-33
2022/05/31 03:33:34;;;;;;;2.03;0.63;;;;;;;27.65;27.99;96174.25;5098800;28;20503;-32
2022/05/31 03:35:59;;;;;;;0.95;0.60;;;;;;;27.67;28.00;96165.41;5110002;28;20035;-30
2022/05/31 03:38:24;;;;;;;0.98;0.75;;;;;;;27.65;28.15;96174.25;5115991;28;20035;-31
2022/05/31 03:40:56;;;;;;;1.08;0.60;;;;;;;27.65;27.73;96174.25;5106210;28;20024;-31
2022/05/31 03:43:21;;;;;;;1.77;0.65;;;;;;;27.65;28.00;96176.06;5102701;28;20699;-31
2022/05/31 03:45:46;;;;;;;1.13;0.80;;;;;;;27.64;27.84;96177.84;5105231;28;20043;-31
2022/05/31 03:48:12;;;;;;;0.95;0.50;;;;;;;27.64;27.99;96166.47;5103635;28;20022;-32
2022/05/31 03:50:38;;;;;;;1.95;0.82;;;;;;;27.64;27.76;96167.31;5100787;28;20577;-33
2022/05/31 03:53:13;;;;;;;0.80;0.45;;;;;;;27.64;27.80;96169.09;5103097;28;20043;-31
2022/05/31 03:55:42;;;;;;;2.25;0.55;;;;;;;27.63;27.89;96164.78;5102682;27;20108;-33
2022/05/31 03:58:08;;;;;;;1.23;0.47;;;;;;;27.63;27.85;96163.00;5102579;28;20448;-32
2022/05/31 04:00:33;;;;;;;1.10;0.63;;;;;;;27.63;27.61;96168.28;5106644;28;20031;-33
2022/05/31 04:02:59;;;;;;;2.53;0.70;;;;;;;27.63;27.92;96163.00;5103315;28;20034;-32
2022/05/31 04:05:24;;;;;;;0.73;0.60;;;;;;;27.63;27.85;96165.66;5100841;28;20038;-34
2022/05/31 04:07:53;;;;;;;0.77;0.70;;;;;;;27.62;27.96;96153.41;5102604;28;20401;-34
2022/05/31 04:10:18;;;;;;;0.93;0.50;;;;;;;27.63;27.91;96160.38;5102982;27;20019;-37
2022/05/31 04:12:44;;;;;;;0.73;0.50;;;;;;;27.62;27.89;96153.41;5098507;28;20575;-31
2022/05/31 04:15:09;;;;;;;1.25;0.60;;;;;;;27.62;28.11;96150.78;5103075;28;20035;-34
2022/05/31 04:17:35;;;;;;;1.45;0.60;;;;;;;27.62;27.93;96152.59;5103598;28;20079;-31
2022/05/31 04:20:00;;;;;;;1.02;0.60;;;;;;;27.63;28.02;96146.38;5103609;28;20035;-31
2022/05/31 04:22:26;;;;;;;0.98;0.50;;;;;;;27.62;27.82;96149.97;5101708;28;20027;-35
2022/05/31 04:24:54;;;;;;;0.70;0.60;;;;;;;27.62;27.68;96152.59;5104185;27;20027;-36
2022/05/31 04:27:20;;;;;;;1.85;0.60;;;;;;;27.61;28.02;96143.03;5107533;28;20446;-36
2022/05/31 04:29:45;;;;;;;0.40;0.40;;;;;;;27.60;27.86;96144.78;5110565;28;20079;-30
2022/05/31 04:32:12;;;;;;;1.85;0.50;;;;;;;27.62;27.92;96152.59;5102086;28;20144;-32
2022/05/31 04:34:37;;;;;;;1.27;0.40;;;;;;;27.60;27.78;96150.03;5109720;27;20030;-31
2022/05/31 04:37:02;;;;;;;0.40;0.40;;;;;;;27.60;27.81;96160.56;5107994;28;20031;-33
2022/05/31 04:39:28;;;;;;;0.80;0.50;;;;;;;27.61;27.84;96164.06;5104846;28;20621;-34
2022/05/31 04:41:53;;;;;;;1.08;0.55;;;;;;;27.61;28.12;96159.63;5105809;27;20027;-34
2022/05/31 04:44:19;;;;;;;0.57;0.47;;;;;;;27.60;28.11;96160.56;5102139;28;20959;-33
2022/05/31 04:46:44;;;;;;;0.80;0.50;;;;;;;27.60;28.05;96150.03;5105106;28;20019;-32
2022/05/31 04:49:10;;;;;;;2.28;0.50;;;;;;;27.60;27.91;96160.56;5100688;28;20019;-32
2022/05/31 04:51:35;;;;;;;2.88;0.70;;;;;;;27.59;28.09;96169.41;5105700;27;20076;-33
2022/05/31 04:54:04;;;;;;;0.68;0.57;;;;;;;27.60;27.98;96164.97;5084494;28;20039;-33
2022/05/31 04:56:30;;;;;;;0.90;0.50;;;;;;;27.59;28.00;96164.16;5104742;27;20528;-32
2022/05/31 04:58:55;;;;;;;0.80;0.57;;;;;;;27.59;27.96;96161.53;5107593;28;20042;-32
2022/05/31 05:01:21;;;;;;;0.40;0.40;;;;;;;27.59;28.07;96151.00;5101266;28;21066;-32
2022/05/31 05:03:46;;;;;;;0.80;0.47;;;;;;;27.59;28.01;96153.63;5100651;27;20734;-32
2022/05/31 05:06:13;;;;;;;3.80;0.45;;;;;;;27.59;27.90;96153.63;5109274;28;20027;-33
2022/05/31 05:08:39;;;;;;;0.68;0.40;;;;;;;27.60;28.03;96143.91;5102405;27;20035;-32
2022/05/31 05:11:06;;;;;;;3.00;0.75;;;;;;;27.59;27.98;96145.72;5100549;28;20373;-32
2022/05/31 05:13:31;;;;;;;1.38;0.70;;;;;;;27.59;27.90;96145.72;5100783;28;20099;-31
2022/05/31 05:15:57;;;;;;;0.40;0.40;;;;;;;27.59;28.30;96148.34;5101939;28;21459;-33
2022/05/31 05:18:23;;;;;;;1.10;0.60;;;;;;;27.59;27.98;96143.09;5098791;27;20031;-31
2022/05/31 05:20:49;;;;;;;0.80;0.50;;;;;;;27.59;28.03;96142.25;5102606;28;22131;-31
2022/05/31 05:23:14;;;;;;;2.38;0.40;;;;;;;27.59;27.92;96137.81;5100553;28;20033;-36
2022/05/31 05:25:40;;;;;;;1.13;0.50;;;;;;;27.58;27.94;96146.66;5099388;28;20027;-33
2022/05/31 05:30:49;;;;;;;0.85;0.60;;;;;;;27.60;27.94;96157.94;5101651;28;20111;-31
2022/05/31 05:33:15;;;;;;;0.82;0.50;;;;;;;27.61;27.83;96166.72;5101732;28;20285;-33
2022/05/31 05:35:40;;;;;;;0.80;0.50;;;;;;;27.59;28.07;96156.25;5102006;28;20031;-32
2022/05/31 05:38:06;;;;;;;2.30;0.52;;;;;;;27.61;27.99;96157.00;5103034;28;20023;-32
2022/05/31 05:40:33;;;;;;;0.30;0.30;;;;;;;27.60;28.22;96152.66;5098574;27;20455;-31
2022/05/31 05:42:58;;;;;;;0.40;0.40;;;;;;;27.60;28.11;96147.41;5082378;28;20084;-38
2022/05/31 05:45:23;;;;;;;0.57;0.43;;;;;;;27.60;27.99;96150.03;5102379;28;20027;-33
2022/05/31 05:47:49;;;;;;;1.17;0.50;;;;;;;27.61;27.92;96146.47;5102927;28;20655;-31
2022/05/31 05:50:14;;;;;;;0.77;0.40;;;;;;;27.60;28.05;96155.28;5077924;28;20023;-31
2022/05/31 05:52:40;;;;;;;0.57;0.50;;;;;;;27.60;28.06;96155.28;5100504;28;20122;-31
2022/05/31 05:55:06;;;;;;;0.63;0.50;;;;;;;27.61;27.93;96154.38;5080284;28;20439;-34
2022/05/31 05:57:31;;;;;;;2.75;0.50;;;;;;;27.61;28.18;96159.63;5100833;28;20031;-30
2022/05/31 05:59:57;;;;;;;0.40;0.40;;;;;;;27.62;28.03;96152.59;5104954;28;20031;-33
2022/05/31 06:02:28;;;;;;;1.48;0.50;;;;;;;27.61;27.92;96154.38;5103380;28;20126;-30
2022/05/31 06:05:01;;;;;;;0.50;0.45;;;;;;;27.62;28.10;96153.41;5086399;28;20520;-32
2022/05/31 06:07:29;;;;;;;2.13;0.65;;;;;;;27.62;27.97;96152.59;5105002;27;20553;-32
2022/05/31 06:09:59;;;;;;;1.25;0.60;;;;;;;27.62;28.02;96153.41;5101278;27;20042;-30
2022/05/31 06:12:27;;;;;;;7.40;0.65;;;;;;;27.62;28.03;96136.81;5077930;27;20042;-32
2022/05/31 06:14:58;;;;;;;3.10;0.80;;;;;;;27.63;28.03;96149.00;5081611;27;20425;-33
2022/05/31 06:17:26;;;;;;;4.97;0.70;;;;;;;27.63;27.88;96144.59;5104370;27;20035;-37
2022/05/31 06:19:51;;;;;;;1.63;0.90;;;;;;;27.63;28.12;96155.13;5099708;27;20063;-33
2022/05/31 06:22:17;;;;;;;2.03;0.88;;;;;;;27.63;28.01;96147.22;5104401;28;20058;-33
2022/05/31 06:24:42;;;;;;;3.13;0.95;;;;;;;27.64;27.77;96145.41;5104291;27;20031;-31
2022/05/31 06:27:08;;;;;;;4.85;1.48;;;;;;;27.64;28.09;96143.63;5090352;28;20031;-31
2022/05/31 06:29:33;;;;;;;3.40;1.40;;;;;;;27.65;27.91;96153.22;5113038;28;20023;-31
2022/05/31 06:31:59;;;;;;;5.20;1.63;;;;;;;27.65;28.08;96147.94;5098293;27;20034;-32
2022/05/31 06:34:24;;;;;;;4.88;1.70;;;;;;;27.67;28.12;96154.88;5106951;28;20031;-33
2022/05/31 06:37:03;;;;;;;4.72;1.90;;;;;;;27.68;27.89;96161.84;5108171;28;20023;-31
2022/05/31 06:39:29;;;;;;;4.95;2.20;;;;;;;27.69;27.93;96160.91;5100759;27;20020;-32
2022/05/31 06:41:55;;;;;;;6.13;2.22;;;;;;;27.68;28.14;96156.59;5105938;28;20912;-31
2022/05/31 06:44:20;;;;;;;5.25;2.08;;;;;;;27.69;28.03;96153.81;5099711;28;21001;-32
2022/05/31 06:46:45;;;;;;;7.55;2.33;;;;;;;27.69;28.24;96150.38;5106213;28;20027;-32
2022/05/31 06:49:11;;;;;;;12.30;2.22;;;;;;;27.70;28.17;96159.94;5104837;28;20046;-31
2022/05/31 06:57:04;;;;;;;6.72;2.75;;;;;;;27.70;28.32;96152.88;5095817;27;20119;-33
2022/05/31 06:59:30;;;;;;;6.97;2.70;;;;;;;27.71;28.29;96145.81;5103626;28;20023;-32
2022/05/31 07:02:03;;;;;;;7.75;2.50;;;;;;;27.69;28.04;96137.19;5100389;27;20778;-32
2022/05/31 07:04:32;;;;;;;5.28;2.50;;;;;;;27.73;28.30;96149.19;5100841;28;21040;-31
2022/05/31 07:06:57;;;;;;;8.05;2.58;;;;;;;27.74;28.22;96145.59;5100976;28;20038;-30
2022/05/31 07:09:23;;;;;;;7.53;2.70;;;;;;;27.74;28.28;96138.56;5104941;27;20417;-31
2022/05/31 07:11:48;;;;;;;8.93;2.35;;;;;;;27.77;28.28;96140.13;5105571;28;20511;-31
2022/05/31 07:14:14;;;;;;;6.05;2.65;;;;;;;27.77;28.46;96135.69;5106879;28;20031;-33
2022/05/31 07:16:39;;;;;;;10.52;2.83;;;;;;;27.79;28.22;96138.22;5107996;28;20035;-32
2022/05/31 07:19:04;;;;;;;5.75;2.60;;;;;;;27.80;28.27;96145.16;5098767;28;21133;-31
2022/05/31 07:21:30;;;;;;;6.18;2.75;;;;;;;27.81;27.78;96138.13;5108960;28;20055;-31
2022/05/31 07:23:55;;;;;;;7.47;2.60;;;;;;;27.82;28.41;96131.88;5097398;27;20034;-31
2022/05/31 07:26:21;;;;;;;6.20;2.50;;;;;;;27.82;28.30;96129.25;5100942;28;20023;-31
2022/05/31 07:28:46;;;;;;;7.72;2.63;;;;;;;27.83;28.24;96144.94;5106067;28;20034;-31
2022/05/31 07:31:12;;;;;;;6.03;2.45;;;;;;;27.85;28.29;96139.56;5105903;27;20054;-32
2022/05/31 07:33:38;;;;;;;5.07;2.53;;;;;;;27.86;28.29;96149.16;5104207;28;20111;-31
2022/05/31 07:36:04;;;;;;;5.25;2.40;;;;;;;27.86;28.29;96149.16;5106669;28;20031;-31
2022/05/31 07:38:30;;;;;;;8.63;2.72;;;;;;;27.86;28.29;96149.16;5101185;27;20031;-38
2022/05/31 07:40:55;;;;;;;5.32;2.40;;;;;;;27.86;28.29;96149.16;5105737;28;20496;-31
2022/05/31 07:43:21;;;;;;;7.97;2.60;;;;;;;27.86;28.29;96149.16;5109576;28;20050;-32
2022/05/31 07:45:46;;;;;;;5.22;2.22;;;;;;;27.89;28.22;96135.78;5110347;27;20020;-30
2022/05/31 07:48:11;;;;;;;4.97;2.40;;;;;;;27.89;28.22;96135.78;5109106;28;20417;-32
2022/05/31 07:50:37;;;;;;;4.88;2.15;;;;;;;27.89;28.22;96135.78;5112142;27;20035;-29
2022/05/31 07:53:03;;;;;;;5.32;2.08;;;;;;;27.86;28.32;96131.56;5110923;27;20019;-31
2022/05/31 07:55:29;;;;;;;5.97;2.40;;;;;;;27.88;28.29;96126.19;5113906;28;20497;-32
2022/05/31 08:00:39;;;;;;;4.07;2.20;;;;;;;27.94;28.31;96130.16;5113505;28;20031;-33
2022/05/31 08:03:05;;;;;;;4.30;2.35;;;;;;;27.94;28.31;96130.16;5110297;28;20442;-32
2022/05/31 08:05:31;;;;;;;7.28;2.40;;;;;;;-148.56;28.31;96130.16;5107904;27;20023;-37
2022/05/31 08:07:56;;;;;;;5.32;2.17;;;;;;;27.97;28.30;96124.69;5116421;28;20045;-31
2022/05/31 08:10:22;;;;;;;6.30;2.00;;;;;;;27.97;28.07;96124.69;5107278;27;20134;-33
2022/05/31 08:12:48;;;;;;;9.10;2.22;;;;;;;27.97;27.89;96124.69;5101624;27;20524;-32
2022/05/31 08:15:13;;;;;;;9.15;2.15;;;;;;;27.95;27.00;96116.88;5100536;27;20039;-38
2022/05/31 08:17:39;;;;;;;9.20;2.08;;;;;;;27.90;26.78;96114.59;5104996;27;20030;-34
2022/05/31 08:20:06;;;;;;;6.25;1.70;;;;;;;27.84;26.41;96107.13;5101663;27;20603;-32
2022/05/31 08:22:33;;;;;;;8.98;1.70;;;;;;;27.80;26.36;96112.75;5102687;27;20039;-34
2022/05/31 08:24:58;;;;;;;9.43;2.25;;;;;;;27.75;26.12;96105.16;5104942;27;20114;-31
2022/05/31 08:27:24;;;;;;;9.40;1.90;;;;;;;27.73;26.19;96101.81;5107521;27;20606;-31
2022/05/31 08:29:49;;;;;;;7.03;1.98;;;;;;;27.70;26.09;96102.88;5113859;28;20031;-34
2022/05/31 08:32:15;;;;;;;7.47;2.13;;;;;;;27.69;26.13;96105.63;5110496;28;20042;-32
2022/05/31 08:34:40;;;;;;;10.52;2.20;;;;;;;27.69;26.14;96109.06;5111253;27;22921;-32
2022/05/31 08:37:05;;;;;;;3.80;1.70;;;;;;;27.69;26.24;96106.44;5116148;27;20027;-32
2022/05/31 08:39:31;;;;;;;4.72;1.63;;;;;;;27.70;26.36;96107.28;5117297;28;20020;-31
2022/05/31 08:42:06;;;;;;;5.85;1.45;;;;;;;27.71;26.34;96108.97;5116916;27;20042;-32
2022/05/31 08:44:35;;;;;;;4.25;1.65;;;;;;;27.72;26.60;96110.66;5087171;28;20116;-31
2022/05/31 08:47:13;;;;;;;5.63;1.50;;;;;;;27.73;26.29;96114.97;5103040;28;20121;-34
2022/05/31 08:53:09;;;;;;;11.25;2.38;;;;;;;27.73;26.46;96113.16;5096432;27;20508;-34
2022/05/31 08:58:55;;;;;;;11.85;2.33;;;;;;;27.74;26.89;96124.56;5098427;27;20375;-35
2022/05/31 09:01:24;;;;;;;8.93;2.20;;;;;;;27.74;26.82;96125.41;5084348;28;20031;-30
2022/05/31 09:03:52;;;;;;;6.10;1.73;;;;;;;27.75;26.74;96132.34;5069418;28;20028;-31
2022/05/31 09:06:21;;;;;;;2.30;1.50;;;;;;;27.75;26.74;96132.34;5073417;28;20072;-31
2022/05/31 09:08:59;;;;;;;4.50;2.10;;;;;;;27.75;26.74;96132.34;5087564;27;20035;-34
2022/05/31 09:11:32;;;;;;;13.45;2.50;;;;;;;27.79;26.79;96119.78;5078109;28;20079;-33
2022/05/31 09:14:05;;;;;;;5.43;2.05;;;;;;;27.79;26.79;96119.78;5106803;28;20060;-31
2022/05/31 09:16:49;;;;;;;9.52;2.67;;;;;;;27.81;26.89;96117.06;5106371;28;20031;-34
2022/05/31 09:19:21;;;;;;;10.50;3.03;;;;;;;27.82;27.06;96122.22;5113524;28;20034;-29
2022/05/31 09:21:48;;;;;;;11.43;3.70;;;;;;;27.82;27.06;96122.22;5112689;28;20085;-29
2022/05/31 09:24:15;;;;;;;18.55;4.50;;;;;;;27.82;27.16;96122.22;5082000;28;20126;-31
2022/05/31 09:27:05;;;;;;;21.00;5.50;;;;;;;27.83;27.16;96123.88;5114435;28;20027;-31
2022/05/31 09:29:42;;;;;;;24.38;6.40;;;;;;;27.85;27.07;96118.50;5115029;28;20029;-34
2022/05/31 09:32:32;;;;;;;26.48;7.05;;;;;;;27.84;27.16;96112.38;5089382;28;20069;-33
2022/05/31 09:35:15;;;;;;;29.88;7.93;;;;;;;27.84;27.16;96112.38;5116232;28;20794;-31
2022/05/31 09:38:19;;;;;;;31.08;8.27;;;;;;;27.84;27.16;96112.38;5110876;28;20133;-31
2022/05/31 09:40:46;;;;;;;37.08;8.80;;;;;;;27.88;27.20;96120.94;5105849;28;20096;-32
2022/05/31 09:43:46;;;;;;;28.58;8.60;;;;;;;27.87;27.25;96114.81;5090089;28;20027;-31
2022/05/31 09:46:51;;;;;;;38.30;8.65;;;;;;;27.88;27.27;96110.41;5118373;28;20042;-30
2022/05/31 09:49:23;;;;;;;26.52;8.80;;;;;;;27.88;27.27;96110.41;5095871;28;20023;-32
2022/05/31 09:51:48;;;;;;;;;;;;;;;27.88;27.53;96105.94;5114264;28;20718;-32
2022/05/31 09:57:07;;;;;;;29.73;8.63;;;;;;;27.89;27.62;96107.63;5118344;28;20038;-31
2022/05/31 09:59:50;;;;;;;30.17;8.30;;;;;;;27.90;27.42;96104.06;5118057;28;20019;-29
2022/05/31 10:02:28;;;;;;;28.52;8.10;;;;;;;27.90;27.42;96104.06;5098625;28;20035;-30
2022/05/31 10:05:14;;;;;;;26.50;7.95;;;;;;;27.91;27.46;96102.25;5117853;28;20557;-33
2022/05/31 10:07:40;;;;;;;24.58;7.80;;;;;;;27.91;27.46;96102.25;5102362;28;21062;-32
2022/05/31 10:10:08;;;;;;;22.55;7.38;;;;;;;27.91;27.75;96105.75;5113681;27;20028;-30
2022/05/31 10:12:34;;;;;;;21.17;7.72;;;;;;;27.91;27.75;96105.75;5111517;28;20027;-33
2022/05/31 10:15:03;;;;;;;23.80;7.60;;;;;;;27.91;27.75;96105.75;5106239;28;20111;-30
2022/05/31 10:17:37;;;;;;;19.02;6.82;;;;;;;27.94;28.23;96099.41;5085322;28;20063;-35
2022/05/31 10:20:22;;;;;;;19.77;6.63;;;;;;;27.94;28.23;96099.41;5105360;28;20030;-33
2022/05/31 10:22:51;;;;;;;22.45;7.20;;;;;;;27.94;28.23;96099.41;5108833;28;20030;-32
2022/05/31 10:25:40;;;;;;;17.55;6.03;;;;;;;27.94;28.23;96099.41;5106017;28;20050;-31
2022/05/31 10:28:22;;;;;;;19.38;6.10;;;;;;;27.94;28.23;96099.41;5115181;28;20027;-31
2022/05/31 10:30:52;;;;;;;19.65;6.28;;;;;;;27.94;28.23;90318.47;5109588;28;20681;-33
2022/05/31 10:33:21;;;;;;;19.95;5.88;;;;;;;27.94;28.23;96099.41;5108540;28;20030;-32
2022/05/31 10:35:47;;;;;;;16.27;5.80;;;;;;;27.94;28.23;96099.41;5108438;28;20187;-31
2022/05/31 10:38:15;;;;;;;18.13;5.97;;;;;;;27.94;28.23;96099.41;5087993;28;20425;-31
2022/05/31 10:40:52;;;;;;;17.80;6.35;;;;;;;-148.56;28.23;96099.41;5104975;28;20039;-35
2022/05/31 10:43:30;;;;;;;13.32;5.20;;;;;;;27.94;28.23;96099.41;5106420;28;20031;-36
2022/05/31 10:45:55;;;;;;;12.20;4.85;;;;;;;-148.56;100.00;61375.16;5101652;28;20023;-38
2022/05/31 10:48:21;;;;;;;17.23;5.60;;;;;;;-148.56;100.00;61375.16;5105514;28;21177;-36
2022/05/31 10:51:09;;;;;;;13.85;5.28;;;;;;;-148.56;100.00;61375.16;5106577;28;21900;-31
2022/05/31 10:53:44;;;;;;;17.40;5.05;;;;;;;-148.56;100.00;61375.16;5084493;28;20028;-31
2022/05/31 10:56:28;;;;;;;17.27;5.13;;;;;;;-148.56;100.00;61375.16;5104879;28;20114;-34
2022/05/31 10:59:05;;;;;;;12.80;4.75;;;;;;;-148.56;100.00;61375.16;5106559;28;20038;-33
2022/05/31 11:01:51;;;;;;;11.93;4.80;;;;;;;-148.56;100.00;61375.16;5103748;27;20033;-37
2022/05/31 11:04:39;;;;;;;12.38;4.70;;;;;;;-148.56;100.00;61375.16;5054679;28;20061;-36
2022/05/31 11:07:14;;;;;;;11.50;4.68;;;;;;;-148.56;100.00;61375.16;5107631;28;20058;-34
2022/05/31 11:12:45;;;;;;;11.38;4.63;;;;;;;-148.56;100.00;61375.16;5107877;28;20070;-33
2022/05/31 11:15:25;;;;;;;14.77;4.63;;;;;;;-148.56;100.00;61375.16;5086968;28;20019;-34
2022/05/31 11:18:16;;;;;;;11.07;3.80;;;;;;;-148.56;100.00;61375.16;5117108;28;20028;-31
2022/05/31 11:20:59;;;;;;;12.18;4.15;;;;;;;-148.56;100.00;61375.16;5119306;28;20011;-34
2022/05/31 11:23:31;;;;;;;10.45;4.03;;;;;;;-148.56;100.00;61375.16;5117955;28;20030;-30
2022/05/31 11:26:17;;;;;;;11.98;3.97;;;;;;;-148.56;100.00;61375.16;5114958;28;20027;-33
2022/05/31 11:28:51;;;;;;;11.20;4.07;;;;;;;-148.56;100.00;61375.16;5116554;28;20035;-32
2022/05/31 11:31:22;;;;;;;9.45;3.72;;;;;;;-148.56;100.00;61375.16;5117865;28;20106;-29
2022/05/31 11:34:10;;;;;;;13.60;4.70;;;;;;;-148.56;100.00;61375.16;5118885;28;20016;-38
2022/05/31 11:36:36;;;;;;;8.18;3.58;;;;;;;-148.56;100.00;61375.16;5119899;28;20035;-31
2022/05/31 11:39:11;;;;;;;9.82;4.10;;;;;;;-148.56;100.00;61375.16;5118697;28;20123;-33
2022/05/31 11:41:59;;;;;;;9.35;4.10;;;;;;;-148.56;100.00;61375.16;5118045;28;20062;-32
2022/05/31 11:45:04;;;;;;;8.85;3.72;;;;;;;-148.56;100.00;61375.16;5087491;28;20515;-35
2022/05/31 11:47:56;;;;;;;9.13;3.63;;;;;;;-148.56;100.00;61375.16;5034167;28;20111;-36
2022/05/31 11:50:44;;;;;;;10.10;3.80;;;;;;;-148.56;100.00;61375.16;5118579;28;20858;-31
2022/05/31 11:53:35;;;;;;;7.57;3.58;;;;;;;-148.56;100.00;61375.16;5098840;28;20572;-31
2022/05/31 11:56:33;;;;;;;10.13;3.25;;;;;;;-148.56;100.00;61375.16;5113668;28;20915;-30
2022/05/31 11:59:12;;;;;;;8.85;3.47;;;;;;;-148.56;100.00;61375.16;5115503;28;20047;-32
2022/05/31 12:01:46;;;;;;;10.85;3.92;;;;;;;-148.56;100.00;61375.16;5101204;28;20028;-30
2022/05/31 12:04:33;;;;;;;9.32;3.70;;;;;;;-148.56;100.00;61375.16;5099187;28;20031;-31